createdAt,value
2023-07-17T00:00:22.507Z,2.50
2023-07-17T00:02:49.327Z,2.50
2023-07-17T00:05:16.054Z,2.72
2023-07-17T00:07:43.110Z,2.70
2023-07-17T00:10:11.261Z,2.53
2023-07-17T00:12:39.073Z,2.80
2023-07-17T00:15:06.543Z,2.28
2023-07-17T00:17:36.860Z,2.80
2023-07-17T00:20:07.977Z,3.28
2023-07-17T00:22:35.939Z,2.47
2023-07-17T00:25:03.066Z,2.53
2023-07-17T00:27:29.775Z,3.00
2023-07-17T00:29:56.548Z,3.10
2023-07-17T00:32:23.363Z,2.50
2023-07-17T00:34:50.090Z,3.08
2023-07-17T00:37:16.812Z,2.65
2023-07-17T00:39:43.615Z,2.88
2023-07-17T00:42:10.340Z,3.10
2023-07-17T00:44:37.112Z,3.15
2023-07-17T00:47:04.572Z,2.90
2023-07-17T00:49:31.923Z,3.63
2023-07-17T00:51:59.743Z,3.05
2023-07-17T00:54:29.356Z,3.53
2023-07-17T00:57:03.558Z,3.70
2023-07-17T00:59:31.570Z,3.28
2023-07-17T01:01:58.804Z,3.42
2023-07-17T01:04:25.471Z,3.25
2023-07-17T01:06:52.136Z,2.85
2023-07-17T01:09:19.208Z,3.28
2023-07-17T01:11:45.919Z,3.03
2023-07-17T01:14:17.514Z,3.22
2023-07-17T01:16:46.976Z,3.38
2023-07-17T01:19:14.115Z,3.40
2023-07-17T01:21:54.439Z,3.40
2023-07-17T01:24:21.249Z,3.47
2023-07-17T01:26:48.197Z,3.03
2023-07-17T01:29:15.035Z,3.38
2023-07-17T01:31:42.741Z,2.85
2023-07-17T01:34:10.218Z,3.42
2023-07-17T01:36:37.036Z,3.45
2023-07-17T01:39:04.194Z,2.88
2023-07-17T01:41:30.873Z,3.45
2023-07-17T01:43:57.673Z,3.28
2023-07-17T01:46:24.399Z,3.50
2023-07-17T01:48:51.186Z,3.47
2023-07-17T01:51:18.119Z,3.40
2023-07-17T01:53:45.115Z,3.65
2023-07-17T01:56:11.799Z,3.88
2023-07-17T01:58:38.483Z,3.60
2023-07-17T02:01:05.178Z,3.25
2023-07-17T02:03:32.717Z,3.47
2023-07-17T02:05:59.516Z,4.20
2023-07-17T02:08:26.412Z,3.65
2023-07-17T02:10:53.422Z,4.18
2023-07-17T02:13:20.368Z,3.05
2023-07-17T02:15:47.269Z,3.92
2023-07-17T02:18:13.990Z,3.78
2023-07-17T02:20:40.946Z,3.65
2023-07-17T02:23:07.994Z,3.58
2023-07-17T02:25:34.851Z,4.35
2023-07-17T02:28:01.579Z,3.20
2023-07-17T02:30:28.338Z,3.88
2023-07-17T02:32:55.118Z,3.35
2023-07-17T02:35:21.843Z,3.45
2023-07-17T02:37:48.545Z,3.63
2023-07-17T02:40:16.989Z,3.53
2023-07-17T02:42:43.760Z,3.90
2023-07-17T02:45:11.132Z,3.95
2023-07-17T02:47:38.047Z,3.95
2023-07-17T02:50:05.806Z,3.88
2023-07-17T02:52:35.531Z,4.13
2023-07-17T02:55:05.320Z,4.30
2023-07-17T02:57:35.955Z,4.10
2023-07-17T03:00:13.920Z,4.03
2023-07-17T03:02:41.375Z,3.70
2023-07-17T03:05:09.733Z,4.53
2023-07-17T03:07:39.593Z,3.92
2023-07-17T03:10:07.050Z,3.80
2023-07-17T03:12:34.158Z,4.20
2023-07-17T03:15:01.128Z,4.25
2023-07-17T03:17:27.896Z,4.25
2023-07-17T03:19:54.609Z,3.88
2023-07-17T03:22:21.336Z,3.55
2023-07-17T03:24:48.060Z,3.88
2023-07-17T03:27:14.738Z,4.20
2023-07-17T03:29:41.434Z,4.30
2023-07-17T03:32:09.298Z,4.55
2023-07-17T03:34:36.092Z,4.20
2023-07-17T03:37:04.156Z,4.65
2023-07-17T03:39:30.964Z,4.68
2023-07-17T03:41:57.638Z,4.78
2023-07-17T03:44:24.375Z,4.65
2023-07-17T03:46:51.097Z,4.80
2023-07-17T03:49:17.809Z,4.25
2023-07-17T03:51:44.490Z,4.60
2023-07-17T03:54:11.478Z,3.97
2023-07-17T03:56:40.584Z,3.60
2023-07-17T03:59:07.546Z,4.47
2023-07-17T04:01:34.309Z,4.63
2023-07-17T04:04:01.096Z,4.10
2023-07-17T04:06:27.862Z,4.57
2023-07-17T04:08:54.553Z,4.30
2023-07-17T04:11:21.428Z,4.20
2023-07-17T04:13:48.160Z,3.83
2023-07-17T04:16:15.242Z,4.40
2023-07-17T04:18:42.081Z,4.55
2023-07-17T04:21:08.832Z,4.85
2023-07-17T04:23:35.543Z,5.35
2023-07-17T04:26:02.245Z,5.28
2023-07-17T04:28:28.936Z,5.10
2023-07-17T04:30:55.729Z,5.32
2023-07-17T04:33:22.532Z,5.30
2023-07-17T04:35:49.255Z,5.15
2023-07-17T04:38:15.979Z,5.32
2023-07-17T04:40:42.664Z,5.03
2023-07-17T04:43:09.332Z,4.95
2023-07-17T04:45:40.947Z,4.57
2023-07-17T04:48:07.669Z,4.47
2023-07-17T04:50:34.485Z,4.90
2023-07-17T04:53:02.245Z,5.22
2023-07-17T04:55:29.084Z,5.07
2023-07-17T04:57:55.787Z,6.13
2023-07-17T05:00:22.752Z,4.75
2023-07-17T05:02:49.602Z,4.53
2023-07-17T05:05:16.422Z,4.97
2023-07-17T05:07:43.206Z,5.43
2023-07-17T05:10:11.812Z,5.03
2023-07-17T05:12:39.970Z,4.80
2023-07-17T05:15:07.470Z,5.60
2023-07-17T05:17:34.316Z,4.85
2023-07-17T05:20:01.204Z,5.10
2023-07-17T05:22:28.163Z,4.75
2023-07-17T05:24:54.909Z,5.15
2023-07-17T05:27:21.605Z,4.38
2023-07-17T05:29:48.900Z,5.20
2023-07-17T05:32:16.182Z,4.78
2023-07-17T05:34:42.903Z,4.85
2023-07-17T05:37:09.777Z,4.95
2023-07-17T05:39:36.536Z,5.15
2023-07-17T05:42:04.631Z,5.22
2023-07-17T05:44:31.374Z,5.03
2023-07-17T05:46:58.200Z,4.90
2023-07-17T05:49:25.009Z,5.22
2023-07-17T05:51:51.646Z,5.00
2023-07-17T05:54:18.338Z,4.63
2023-07-17T05:56:45.023Z,4.50
2023-07-17T05:59:11.752Z,4.35
2023-07-17T06:01:38.440Z,4.55
2023-07-17T06:04:05.374Z,4.25
2023-07-17T06:06:32.704Z,4.15
2023-07-17T06:09:02.249Z,3.75
2023-07-17T06:11:29.229Z,4.35
2023-07-17T06:13:55.912Z,4.05
2023-07-17T06:16:22.666Z,3.85
2023-07-17T06:18:49.422Z,4.28
2023-07-17T06:21:16.356Z,3.53
2023-07-17T06:23:43.233Z,4.43
2023-07-17T06:26:09.901Z,3.58
2023-07-17T06:28:36.594Z,2.67
2023-07-17T06:31:04.538Z,3.47
2023-07-17T06:33:35.735Z,2.67
2023-07-17T06:36:03.716Z,2.17
2023-07-17T06:38:30.702Z,2.60
2023-07-17T06:40:57.505Z,3.20
2023-07-17T06:43:24.326Z,2.38
2023-07-17T06:45:51.186Z,2.45
2023-07-17T06:48:17.999Z,2.05
2023-07-17T06:50:46.761Z,2.22
2023-07-17T06:53:13.611Z,2.30
2023-07-17T06:55:40.702Z,2.30
2023-07-17T06:58:07.511Z,2.28
2023-07-17T07:00:34.260Z,2.17
2023-07-17T07:03:01.105Z,1.90
2023-07-17T07:05:27.857Z,2.13
2023-07-17T07:07:55.117Z,1.80
2023-07-17T07:10:23.268Z,2.13
2023-07-17T07:12:49.966Z,1.80
2023-07-17T07:15:16.657Z,1.88
2023-07-17T07:17:44.799Z,1.98
2023-07-17T07:20:12.015Z,1.95
2023-07-17T07:22:38.827Z,1.80
2023-07-17T07:25:06.114Z,1.90
2023-07-17T07:27:32.819Z,2.00
2023-07-17T07:29:59.904Z,1.88
2023-07-17T07:32:27.210Z,1.80
2023-07-17T07:34:53.992Z,1.80
2023-07-17T07:37:20.687Z,1.77
2023-07-17T07:39:47.359Z,1.58
2023-07-17T07:42:15.103Z,1.80
2023-07-17T07:44:42.042Z,1.65
2023-07-17T07:47:08.880Z,1.90
2023-07-17T07:49:38.393Z,2.08
2023-07-17T07:52:05.364Z,1.55
2023-07-17T07:54:32.128Z,1.88
2023-07-17T07:56:58.888Z,1.60
2023-07-17T07:59:25.594Z,1.92
2023-07-17T08:01:52.347Z,1.73
2023-07-17T08:04:19.249Z,2.00
2023-07-17T08:06:46.269Z,1.60
2023-07-17T08:09:12.954Z,1.60
2023-07-17T08:11:40.924Z,1.85
2023-07-17T08:14:07.821Z,1.98
2023-07-17T08:16:34.523Z,1.60
2023-07-17T08:19:01.262Z,1.77
2023-07-17T08:21:28.036Z,1.60
2023-07-17T08:23:57.217Z,1.52
2023-07-17T08:26:24.148Z,1.90
2023-07-17T08:28:51.337Z,1.90
2023-07-17T08:31:18.159Z,1.77
2023-07-17T08:33:44.863Z,1.70
2023-07-17T08:36:11.570Z,1.80
2023-07-17T08:38:38.909Z,1.60
2023-07-17T08:41:07.742Z,1.92
2023-07-17T08:43:36.206Z,1.92
2023-07-17T08:46:03.451Z,1.60
2023-07-17T08:48:30.688Z,1.80
2023-07-17T08:50:59.190Z,1.70
2023-07-17T08:53:26.012Z,2.13
2023-07-17T08:55:55.681Z,1.70
2023-07-17T08:58:25.079Z,1.88
2023-07-17T09:00:51.889Z,1.90
2023-07-17T09:03:20.388Z,1.80
2023-07-17T09:05:47.302Z,1.80
2023-07-17T09:08:14.323Z,1.98
2023-07-17T09:10:41.088Z,2.00
2023-07-17T09:13:07.790Z,1.85
2023-07-17T09:15:34.820Z,1.85
2023-07-17T09:18:01.715Z,2.00
2023-07-17T09:20:28.473Z,2.25
2023-07-17T09:22:57.593Z,2.00
2023-07-17T09:25:28.545Z,1.90
2023-07-17T09:27:55.812Z,1.70
2023-07-17T09:30:24.841Z,1.90
2023-07-17T09:32:52.307Z,1.77
2023-07-17T09:35:21.202Z,1.85
2023-07-17T09:37:48.256Z,2.15
2023-07-17T09:40:18.990Z,1.70
2023-07-17T09:42:52.542Z,1.67
2023-07-17T09:45:20.545Z,2.10
2023-07-17T09:47:53.563Z,1.90
2023-07-17T09:50:23.622Z,1.60
2023-07-17T09:52:51.447Z,1.60
2023-07-17T09:55:20.746Z,1.83
2023-07-17T09:57:51.270Z,1.90
2023-07-17T10:00:20.520Z,2.08
2023-07-17T10:02:53.458Z,2.08
2023-07-17T10:05:21.326Z,1.73
2023-07-17T10:07:51.126Z,1.90
2023-07-17T10:10:18.048Z,2.10
2023-07-17T10:12:45.991Z,1.50
2023-07-17T10:15:14.832Z,1.90
2023-07-17T10:17:41.881Z,2.10
2023-07-17T10:20:10.906Z,2.38
2023-07-17T10:22:47.254Z,2.08
2023-07-17T10:25:20.105Z,2.50
2023-07-17T10:27:49.350Z,1.77
2023-07-17T10:30:34.567Z,2.28
2023-07-17T10:33:12.008Z,2.10
2023-07-17T10:35:56.430Z,2.00
2023-07-17T10:38:28.374Z,2.15
2023-07-17T10:41:06.240Z,1.77
2023-07-17T10:43:35.008Z,2.20
2023-07-17T10:46:11.810Z,2.38
2023-07-17T10:48:38.539Z,2.03
2023-07-17T10:51:06.524Z,2.92
2023-07-17T10:53:33.322Z,2.88
2023-07-17T10:56:00.517Z,1.90
2023-07-17T10:58:27.350Z,2.08
2023-07-17T11:00:54.678Z,1.90
2023-07-17T11:03:24.082Z,2.15
2023-07-17T11:05:55.028Z,2.17
2023-07-17T11:08:21.964Z,1.90
2023-07-17T11:10:48.672Z,1.67
2023-07-17T11:13:15.384Z,2.17
2023-07-17T11:15:43.691Z,2.00
2023-07-17T11:18:13.298Z,1.90
2023-07-17T11:20:40.350Z,2.38
2023-07-17T11:23:12.237Z,2.20
2023-07-17T11:25:40.230Z,2.30
2023-07-17T11:28:07.076Z,1.90
2023-07-17T11:30:33.787Z,2.08
2023-07-17T11:33:02.427Z,1.95
2023-07-17T11:35:40.312Z,2.00
2023-07-17T11:38:08.193Z,1.95
2023-07-17T11:40:50.739Z,2.20
2023-07-17T11:43:26.291Z,2.05
2023-07-17T11:46:02.642Z,2.17
2023-07-17T11:48:31.030Z,2.40
2023-07-17T11:50:58.349Z,2.67
2023-07-17T11:53:25.724Z,2.10
2023-07-17T11:55:52.546Z,2.40
2023-07-17T11:58:23.884Z,2.13
2023-07-17T12:00:54.714Z,2.22
2023-07-17T12:03:21.619Z,2.63
2023-07-17T12:05:48.896Z,2.13
2023-07-17T12:08:16.246Z,2.25
2023-07-17T12:10:42.998Z,2.30
2023-07-17T12:13:10.000Z,2.58
2023-07-17T12:15:38.485Z,1.98
2023-07-17T12:18:05.462Z,2.30
2023-07-17T12:20:35.911Z,2.33
2023-07-17T12:23:03.742Z,2.20
2023-07-17T12:25:31.726Z,2.42
2023-07-17T12:28:01.044Z,2.33
2023-07-17T12:30:30.077Z,2.10
2023-07-17T12:32:57.475Z,2.13
2023-07-17T12:35:24.503Z,2.00
2023-07-17T12:37:51.205Z,1.98
2023-07-17T12:40:18.724Z,2.50
2023-07-17T12:42:45.417Z,2.30
2023-07-17T12:45:12.212Z,2.20
2023-07-17T12:47:40.648Z,2.10
2023-07-17T12:50:09.221Z,1.92
2023-07-17T12:52:36.047Z,2.40
2023-07-17T12:55:02.847Z,2.00
2023-07-17T12:57:29.578Z,3.30
2023-07-17T12:59:56.427Z,1.95
2023-07-17T13:02:25.051Z,2.40
2023-07-17T13:04:52.084Z,2.30
2023-07-17T13:07:18.856Z,2.00
2023-07-17T13:09:45.592Z,1.67
2023-07-17T13:12:12.752Z,2.17
2023-07-17T13:14:40.100Z,2.28
2023-07-17T13:17:07.476Z,2.30
2023-07-17T13:19:35.265Z,2.63
2023-07-17T13:22:01.986Z,2.20
2023-07-17T13:24:28.782Z,2.42
2023-07-17T13:26:55.890Z,1.83
2023-07-17T13:29:22.799Z,2.00
2023-07-17T13:31:49.695Z,2.20
2023-07-17T13:34:16.531Z,2.60
2023-07-17T13:36:44.478Z,1.90
2023-07-17T13:39:11.247Z,1.88
2023-07-17T13:41:42.817Z,1.88
2023-07-17T13:44:10.105Z,2.15
2023-07-17T13:46:37.226Z,2.25
2023-07-17T13:49:05.508Z,1.73
2023-07-17T13:51:32.914Z,2.22
2023-07-17T13:54:00.142Z,2.13
2023-07-17T13:58:57.506Z,2.33
2023-07-17T14:01:24.374Z,2.20
2023-07-17T14:03:51.303Z,2.35
2023-07-17T14:06:18.462Z,2.10
2023-07-17T14:08:45.769Z,2.28
2023-07-17T14:11:13.545Z,2.13
2023-07-17T14:13:40.772Z,2.55
2023-07-17T14:16:10.671Z,2.13
2023-07-17T14:18:40.506Z,2.30
2023-07-17T14:21:07.960Z,2.15
2023-07-17T14:23:35.490Z,2.35
2023-07-17T14:26:03.585Z,2.22
2023-07-17T14:28:31.355Z,2.00
2023-07-17T14:30:58.736Z,2.13
2023-07-17T14:33:25.444Z,2.22
2023-07-17T14:35:52.176Z,2.10
2023-07-17T14:38:18.962Z,2.00
2023-07-17T14:40:46.091Z,2.50
2023-07-17T14:43:13.040Z,1.90
2023-07-17T14:45:39.787Z,2.20
2023-07-17T14:48:07.460Z,2.17
2023-07-17T14:50:34.388Z,2.38
2023-07-17T14:53:01.115Z,2.42
2023-07-17T14:55:27.888Z,2.30
2023-07-17T14:57:54.657Z,2.08
2023-07-17T15:00:23.755Z,2.95
2023-07-17T15:02:50.922Z,2.38
2023-07-17T15:05:21.303Z,2.30
2023-07-17T15:07:48.465Z,2.55
2023-07-17T15:10:15.417Z,2.65
2023-07-17T15:12:42.244Z,2.67
2023-07-17T15:15:09.681Z,2.00
2023-07-17T15:17:36.865Z,2.25
2023-07-17T15:20:04.434Z,2.35
2023-07-17T15:22:31.211Z,2.60
2023-07-17T15:24:58.194Z,2.50
2023-07-17T15:27:24.952Z,2.40
2023-07-17T15:29:51.661Z,2.20
2023-07-17T15:32:18.429Z,2.20
2023-07-17T15:34:45.770Z,2.60
2023-07-17T15:37:12.468Z,2.25
2023-07-17T15:39:39.230Z,2.50
2023-07-17T15:42:06.130Z,3.90
2023-07-17T15:44:34.115Z,2.85
2023-07-17T15:47:00.910Z,2.55
2023-07-17T15:49:27.686Z,2.25
2023-07-17T15:51:54.393Z,2.00
2023-07-17T15:54:21.098Z,2.30
2023-07-17T15:56:47.819Z,2.42
2023-07-17T15:59:14.725Z,2.28
2023-07-17T16:01:41.638Z,2.17
2023-07-17T16:04:08.530Z,2.30
2023-07-17T16:06:35.256Z,2.30
2023-07-17T16:09:02.158Z,2.53
2023-07-17T16:11:28.929Z,2.08
2023-07-17T16:13:55.608Z,2.20
2023-07-17T16:16:22.324Z,2.63
2023-07-17T16:18:49.123Z,2.75
2023-07-17T16:21:16.012Z,2.22
2023-07-17T16:23:43.085Z,2.25
2023-07-17T16:26:11.382Z,2.17
2023-07-17T16:28:38.192Z,2.80
2023-07-17T16:31:04.955Z,1.90
2023-07-17T16:33:31.892Z,2.15
2023-07-17T16:35:58.634Z,2.70
2023-07-17T16:38:25.573Z,2.58
2023-07-17T16:40:52.823Z,2.38
2023-07-17T16:43:19.539Z,2.40
2023-07-17T16:45:46.389Z,2.47
2023-07-17T16:48:15.014Z,2.22
2023-07-17T16:50:42.030Z,2.72
2023-07-17T16:53:10.025Z,2.60
2023-07-17T16:55:37.083Z,1.98
2023-07-17T16:58:04.511Z,2.03
2023-07-17T17:00:32.568Z,2.72
2023-07-17T17:02:59.493Z,2.70
2023-07-17T17:05:26.302Z,2.15
2023-07-17T17:07:53.017Z,2.50
2023-07-17T17:10:19.847Z,2.63
2023-07-17T17:12:46.511Z,2.30
2023-07-17T17:15:13.280Z,2.38
2023-07-17T17:17:40.484Z,2.17
2023-07-17T17:20:09.572Z,2.42
2023-07-17T17:22:37.243Z,2.42
2023-07-17T17:25:04.358Z,2.53
2023-07-17T17:27:31.095Z,2.40
2023-07-17T17:29:59.972Z,2.58
2023-07-17T17:32:28.194Z,2.58
2023-07-17T17:34:55.165Z,2.58
2023-07-17T17:37:21.946Z,3.03
2023-07-17T17:39:48.607Z,2.70
2023-07-17T17:42:16.136Z,2.50
2023-07-17T17:44:43.788Z,2.47
2023-07-17T17:47:10.578Z,2.80
2023-07-17T17:49:37.302Z,2.80
2023-07-17T17:52:04.312Z,2.38
2023-07-17T17:54:31.001Z,2.08
2023-07-17T17:56:59.021Z,2.30
2023-07-17T17:59:25.851Z,2.90
2023-07-17T18:01:52.753Z,2.13
2023-07-17T18:04:19.948Z,2.38
2023-07-17T18:06:46.804Z,2.55
2023-07-17T18:09:14.827Z,2.33
2023-07-17T18:11:42.078Z,2.90
2023-07-17T18:14:14.125Z,2.53
2023-07-17T18:16:40.871Z,3.00
2023-07-17T18:19:08.824Z,2.55
2023-07-17T18:21:35.614Z,2.65
2023-07-17T18:24:02.378Z,2.55
2023-07-17T18:26:30.560Z,2.80
2023-07-17T18:28:59.355Z,2.42
2023-07-17T18:31:27.793Z,2.72
2023-07-17T18:33:54.608Z,2.70
2023-07-17T18:36:21.412Z,2.45
2023-07-17T18:38:48.098Z,2.90
2023-07-17T18:41:14.801Z,2.95
2023-07-17T18:43:41.537Z,2.30
2023-07-17T18:46:08.979Z,2.85
2023-07-17T18:48:35.806Z,2.53
2023-07-17T18:51:02.790Z,2.63
2023-07-17T18:53:29.837Z,2.55
2023-07-17T18:55:56.903Z,2.53
2023-07-17T18:58:25.157Z,3.25
2023-07-17T19:00:52.265Z,2.50
2023-07-17T19:03:19.186Z,3.05
2023-07-17T19:05:46.336Z,2.78
2023-07-17T19:08:17.751Z,2.75
2023-07-17T19:10:45.097Z,2.80
2023-07-17T19:13:19.143Z,3.08
2023-07-17T19:15:46.059Z,2.72
2023-07-17T19:18:12.955Z,2.58
2023-07-17T19:20:40.998Z,2.80
2023-07-17T19:23:08.813Z,2.63
2023-07-17T19:25:36.028Z,3.13
2023-07-17T19:28:08.205Z,3.05
2023-07-17T19:30:34.940Z,2.55
2023-07-17T19:33:01.730Z,3.15
2023-07-17T19:35:28.826Z,2.58
2023-07-17T19:37:55.722Z,2.67
2023-07-17T19:40:22.467Z,3.22
2023-07-17T19:42:49.142Z,2.88
2023-07-17T19:45:15.834Z,2.72
2023-07-17T19:47:44.008Z,2.63
2023-07-17T19:50:11.710Z,3.10
2023-07-17T19:52:39.050Z,2.90
2023-07-17T19:55:06.139Z,2.75
2023-07-17T19:57:32.834Z,3.03
2023-07-17T19:59:59.512Z,3.25
2023-07-17T20:02:29.227Z,3.08
2023-07-17T20:04:56.085Z,3.10
2023-07-17T20:07:23.000Z,2.97
2023-07-17T20:09:50.085Z,2.97
2023-07-17T20:12:16.916Z,3.00
2023-07-17T20:14:43.668Z,2.75
2023-07-17T20:17:10.621Z,3.60
2023-07-17T20:19:37.493Z,3.28
2023-07-17T20:22:04.735Z,2.92
2023-07-17T20:24:31.707Z,3.05
2023-07-17T20:26:58.513Z,3.22
2023-07-17T20:29:27.181Z,2.85
2023-07-17T20:31:53.914Z,2.55
2023-07-17T20:34:20.670Z,2.90
2023-07-17T20:36:47.355Z,3.00
2023-07-17T20:39:14.075Z,2.92
2023-07-17T20:41:40.863Z,4.28
2023-07-17T20:44:07.566Z,3.13
2023-07-17T20:46:34.452Z,3.03
2023-07-17T20:49:01.313Z,3.63
2023-07-17T20:51:28.099Z,3.83
2023-07-17T20:53:54.782Z,3.22
2023-07-17T20:56:21.549Z,2.75
2023-07-17T20:58:49.657Z,3.03
2023-07-17T21:01:21.718Z,3.30
2023-07-17T21:03:49.040Z,3.42
2023-07-17T21:06:15.777Z,2.97
2023-07-17T21:08:42.453Z,3.28
2023-07-17T21:11:09.247Z,3.15
2023-07-17T21:13:35.931Z,2.88
2023-07-17T21:16:02.718Z,2.92
2023-07-17T21:18:29.674Z,3.55
2023-07-17T21:20:56.832Z,2.72
2023-07-17T21:23:23.742Z,3.42
2023-07-17T21:25:50.654Z,3.58
2023-07-17T21:28:18.057Z,3.13
2023-07-17T21:30:45.076Z,3.00
2023-07-17T21:33:12.715Z,2.85
2023-07-17T21:35:39.651Z,3.33
2023-07-17T21:38:06.572Z,3.60
2023-07-17T21:40:33.258Z,3.35
2023-07-17T21:42:59.961Z,3.05
2023-07-17T21:45:26.754Z,2.75
2023-07-17T21:47:53.530Z,3.03
2023-07-17T21:50:20.361Z,3.30
2023-07-17T21:52:47.044Z,3.25
2023-07-17T21:55:13.913Z,3.38
2023-07-17T21:57:41.713Z,3.83
2023-07-17T22:00:14.182Z,2.85
2023-07-17T22:02:43.974Z,3.25
2023-07-17T22:05:12.918Z,3.35
2023-07-17T22:07:39.718Z,3.28
2023-07-17T22:10:06.886Z,2.65
2023-07-17T22:12:33.601Z,3.05
2023-07-17T22:15:00.388Z,3.40
2023-07-17T22:17:27.331Z,2.92
2023-07-17T22:19:54.084Z,2.83
2023-07-17T22:22:21.424Z,2.80
2023-07-17T22:24:50.821Z,2.85
2023-07-17T22:27:18.283Z,2.63
2023-07-17T22:29:45.210Z,2.78
2023-07-17T22:32:12.233Z,2.63
2023-07-17T22:34:39.084Z,2.63
2023-07-17T22:37:06.092Z,2.85
2023-07-17T22:39:32.942Z,2.97
2023-07-17T22:41:59.728Z,3.15
2023-07-17T22:44:26.823Z,2.95
2023-07-17T22:46:53.739Z,2.03
2023-07-17T22:49:20.493Z,3.03
2023-07-17T22:51:47.205Z,2.83
2023-07-17T22:54:14.864Z,2.55
2023-07-17T22:56:41.617Z,2.72
2023-07-17T22:59:08.347Z,2.60
2023-07-17T23:01:36.274Z,2.50
2023-07-17T23:04:03.262Z,3.03
2023-07-17T23:06:29.987Z,2.97
2023-07-17T23:08:56.708Z,2.88
2023-07-17T23:11:23.512Z,2.75
2023-07-17T23:13:50.174Z,2.50
2023-07-17T23:16:16.930Z,2.63
2023-07-17T23:18:44.962Z,2.38
2023-07-17T23:21:11.644Z,3.17
2023-07-17T23:23:38.328Z,2.97
2023-07-17T23:26:05.193Z,3.40
2023-07-17T23:28:36.624Z,3.22
2023-07-17T23:31:03.714Z,3.42
2023-07-17T23:33:30.434Z,2.90
2023-07-17T23:35:57.136Z,2.83
2023-07-17T23:38:23.860Z,3.55
2023-07-17T23:40:50.667Z,3.10
2023-07-17T23:43:17.376Z,3.38
2023-07-17T23:45:44.234Z,3.00
2023-07-17T23:48:10.961Z,3.35
2023-07-17T23:50:37.655Z,2.80
2023-07-17T23:53:04.417Z,2.97
2023-07-17T23:55:32.452Z,2.97
2023-07-17T23:58:00.208Z,2.75
